sensor_id;sensor_type;location;lat;lon;timestamp;P1;durP1;ratioP1;P2;durP2;ratioP2
68989;SDS011;56046;47.270;11.368;2022-11-15T00:00:14;5.00;;;2.03;;
68989;SDS011;56046;47.270;11.368;2022-11-15T00:02:40;5.50;;;2.30;;
68989;SDS011;56046;47.270;11.368;2022-11-15T00:05:05;4.70;;;2.20;;
68989;SDS011;56046;47.270;11.368;2022-11-15T00:07:31;6.68;;;2.28;;
68989;SDS011;56046;47.270;11.368;2022-11-15T00:09:56;5.13;;;2.30;;
68989;SDS011;56046;47.270;11.368;2022-11-15T00:12:22;3.90;;;2.10;;
68989;SDS011;56046;47.270;11.368;2022-11-15T00:14:47;4.40;;;2.43;;
68989;SDS011;56046;47.270;11.368;2022-11-15T00:17:13;6.05;;;2.20;;
68989;SDS011;56046;47.270;11.368;2022-11-15T00:19:38;5.47;;;2.60;;
68989;SDS011;56046;47.270;11.368;2022-11-15T00:22:04;4.70;;;2.23;;
68989;SDS011;56046;47.270;11.368;2022-11-15T00:24:29;5.95;;;2.40;;
68989;SDS011;56046;47.270;11.368;2022-11-15T00:26:55;5.70;;;2.30;;
68989;SDS011;56046;47.270;11.368;2022-11-15T00:29:20;4.50;;;2.23;;
68989;SDS011;56046;47.270;11.368;2022-11-15T00:31:52;4.53;;;2.08;;
68989;SDS011;56046;47.270;11.368;2022-11-15T00:34:17;4.97;;;2.38;;
68989;SDS011;56046;47.270;11.368;2022-11-15T00:36:43;4.70;;;2.00;;
68989;SDS011;56046;47.270;11.368;2022-11-15T00:39:08;3.87;;;1.97;;
68989;SDS011;56046;47.270;11.368;2022-11-15T00:41:34;5.57;;;2.00;;
68989;SDS011;56046;47.270;11.368;2022-11-15T00:43:59;5.15;;;2.10;;
68989;SDS011;56046;47.270;11.368;2022-11-15T00:46:25;4.43;;;2.30;;
68989;SDS011;56046;47.270;11.368;2022-11-15T00:48:50;4.27;;;2.10;;
68989;SDS011;56046;47.270;11.368;2022-11-15T00:51:16;6.35;;;2.15;;
68989;SDS011;56046;47.270;11.368;2022-11-15T00:53:41;3.10;;;1.63;;
68989;SDS011;56046;47.270;11.368;2022-11-15T00:56:07;4.43;;;2.30;;
68989;SDS011;56046;47.270;11.368;2022-11-15T00:58:32;4.50;;;1.87;;
68989;SDS011;56046;47.270;11.368;2022-11-15T01:01:11;5.35;;;2.05;;
68989;SDS011;56046;47.270;11.368;2022-11-15T01:03:38;4.32;;;1.85;;
68989;SDS011;56046;47.270;11.368;2022-11-15T01:06:05;5.32;;;2.47;;
68989;SDS011;56046;47.270;11.368;2022-11-15T01:08:32;4.22;;;1.80;;
68989;SDS011;56046;47.270;11.368;2022-11-15T01:11:05;4.10;;;2.13;;
68989;SDS011;56046;47.270;11.368;2022-11-15T01:13:32;3.70;;;1.90;;
68989;SDS011;56046;47.270;11.368;2022-11-15T01:15:59;5.05;;;1.85;;
68989;SDS011;56046;47.270;11.368;2022-11-15T01:18:31;4.35;;;1.60;;
68989;SDS011;56046;47.270;11.368;2022-11-15T01:20:56;5.28;;;1.77;;
68989;SDS011;56046;47.270;11.368;2022-11-15T01:23:22;3.92;;;2.10;;
68989;SDS011;56046;47.270;11.368;2022-11-15T01:25:47;5.27;;;1.53;;
68989;SDS011;56046;47.270;11.368;2022-11-15T01:28:13;4.47;;;2.10;;
68989;SDS011;56046;47.270;11.368;2022-11-15T01:30:38;5.80;;;1.83;;
68989;SDS011;56046;47.270;11.368;2022-11-15T01:33:03;5.47;;;1.80;;
68989;SDS011;56046;47.270;11.368;2022-11-15T01:35:29;3.10;;;1.50;;
68989;SDS011;56046;47.270;11.368;2022-11-15T01:37:54;3.33;;;1.53;;
68989;SDS011;56046;47.270;11.368;2022-11-15T01:40:20;3.63;;;1.70;;
68989;SDS011;56046;47.270;11.368;2022-11-15T01:42:45;3.83;;;1.60;;
68989;SDS011;56046;47.270;11.368;2022-11-15T01:45:14;4.63;;;1.73;;
68989;SDS011;56046;47.270;11.368;2022-11-15T01:47:42;3.80;;;1.58;;
68989;SDS011;56046;47.270;11.368;2022-11-15T01:50:10;4.20;;;1.90;;
68989;SDS011;56046;47.270;11.368;2022-11-15T01:52:39;4.55;;;1.85;;
68989;SDS011;56046;47.270;11.368;2022-11-15T01:55:26;4.43;;;2.08;;
68989;SDS011;56046;47.270;11.368;2022-11-15T01:57:57;6.07;;;2.17;;
68989;SDS011;56046;47.270;11.368;2022-11-15T02:00:25;4.15;;;1.83;;
68989;SDS011;56046;47.270;11.368;2022-11-15T02:02:50;4.78;;;2.00;;
68989;SDS011;56046;47.270;11.368;2022-11-15T02:05:16;5.83;;;2.00;;
68989;SDS011;56046;47.270;11.368;2022-11-15T02:07:41;4.80;;;2.17;;
68989;SDS011;56046;47.270;11.368;2022-11-15T02:10:11;5.93;;;1.88;;
68989;SDS011;56046;47.270;11.368;2022-11-15T02:12:43;4.35;;;2.08;;
68989;SDS011;56046;47.270;11.368;2022-11-15T02:15:10;4.40;;;2.15;;
68989;SDS011;56046;47.270;11.368;2022-11-15T02:29:07;4.63;;;1.83;;
68989;SDS011;56046;47.270;11.368;2022-11-15T02:37:16;3.75;;;1.80;;
68989;SDS011;56046;47.270;11.368;2022-11-15T02:39:51;5.63;;;2.35;;
68989;SDS011;56046;47.270;11.368;2022-11-15T02:42:23;4.97;;;2.10;;
68989;SDS011;56046;47.270;11.368;2022-11-15T02:45:11;5.05;;;2.83;;
68989;SDS011;56046;47.270;11.368;2022-11-15T02:47:44;5.35;;;2.20;;
68989;SDS011;56046;47.270;11.368;2022-11-15T02:50:18;4.10;;;1.90;;
68989;SDS011;56046;47.270;11.368;2022-11-15T02:52:46;5.43;;;1.90;;
68989;SDS011;56046;47.270;11.368;2022-11-15T03:01:00;5.32;;;1.98;;
68989;SDS011;56046;47.270;11.368;2022-11-15T03:11:29;3.65;;;1.83;;
68989;SDS011;56046;47.270;11.368;2022-11-15T03:21:59;4.77;;;2.10;;
68989;SDS011;56046;47.270;11.368;2022-11-15T03:24:27;5.00;;;2.70;;
68989;SDS011;56046;47.270;11.368;2022-11-15T03:26:54;5.60;;;2.60;;
68989;SDS011;56046;47.270;11.368;2022-11-15T03:29:24;6.43;;;2.80;;
68989;SDS011;56046;47.270;11.368;2022-11-15T03:31:59;7.18;;;3.42;;
68989;SDS011;56046;47.270;11.368;2022-11-15T03:34:30;7.97;;;3.30;;
68989;SDS011;56046;47.270;11.368;2022-11-15T03:37:17;5.70;;;2.85;;
68989;SDS011;56046;47.270;11.368;2022-11-15T03:39:46;6.78;;;3.05;;
68989;SDS011;56046;47.270;11.368;2022-11-15T03:47:32;4.63;;;2.17;;
68989;SDS011;56046;47.270;11.368;2022-11-15T03:50:11;6.10;;;2.50;;
68989;SDS011;56046;47.270;11.368;2022-11-15T03:52:39;5.97;;;2.20;;
68989;SDS011;56046;47.270;11.368;2022-11-15T03:55:07;4.38;;;1.75;;
68989;SDS011;56046;47.270;11.368;2022-11-15T03:57:35;4.57;;;2.10;;
68989;SDS011;56046;47.270;11.368;2022-11-15T04:00:01;5.40;;;1.83;;
68989;SDS011;56046;47.270;11.368;2022-11-15T04:02:26;4.05;;;1.95;;
68989;SDS011;56046;47.270;11.368;2022-11-15T04:04:51;4.77;;;1.73;;
68989;SDS011;56046;47.270;11.368;2022-11-15T04:07:17;4.03;;;2.00;;
68989;SDS011;56046;47.270;11.368;2022-11-15T04:09:42;4.70;;;2.10;;
68989;SDS011;56046;47.270;11.368;2022-11-15T04:12:26;4.25;;;1.80;;
68989;SDS011;56046;47.270;11.368;2022-11-15T04:17:32;3.67;;;1.80;;
68989;SDS011;56046;47.270;11.368;2022-11-15T04:19:57;5.87;;;2.27;;
68989;SDS011;56046;47.270;11.368;2022-11-15T04:22:41;4.28;;;2.05;;
68989;SDS011;56046;47.270;11.368;2022-11-15T04:25:25;6.20;;;2.53;;
68989;SDS011;56046;47.270;11.368;2022-11-15T04:27:50;5.73;;;2.40;;
68989;SDS011;56046;47.270;11.368;2022-11-15T04:30:16;5.70;;;2.60;;
68989;SDS011;56046;47.270;11.368;2022-11-15T04:32:41;5.15;;;2.25;;
68989;SDS011;56046;47.270;11.368;2022-11-15T04:35:07;5.27;;;2.10;;
68989;SDS011;56046;47.270;11.368;2022-11-15T04:37:33;4.43;;;2.22;;
68989;SDS011;56046;47.270;11.368;2022-11-15T04:39:58;4.15;;;1.90;;
68989;SDS011;56046;47.270;11.368;2022-11-15T04:42:23;4.83;;;2.30;;
68989;SDS011;56046;47.270;11.368;2022-11-15T04:44:49;5.63;;;2.10;;
68989;SDS011;56046;47.270;11.368;2022-11-15T04:47:14;4.87;;;2.03;;
68989;SDS011;56046;47.270;11.368;2022-11-15T04:49:40;5.53;;;2.10;;
68989;SDS011;56046;47.270;11.368;2022-11-15T04:52:05;4.50;;;2.78;;
68989;SDS011;56046;47.270;11.368;2022-11-15T04:54:30;4.60;;;2.53;;
68989;SDS011;56046;47.270;11.368;2022-11-15T04:56:56;5.03;;;2.53;;
68989;SDS011;56046;47.270;11.368;2022-11-15T04:59:21;5.13;;;2.00;;
68989;SDS011;56046;47.270;11.368;2022-11-15T05:01:47;3.20;;;1.70;;
68989;SDS011;56046;47.270;11.368;2022-11-15T05:04:12;5.87;;;1.70;;
68989;SDS011;56046;47.270;11.368;2022-11-15T05:06:43;4.35;;;2.03;;
68989;SDS011;56046;47.270;11.368;2022-11-15T05:09:09;4.33;;;2.40;;
68989;SDS011;56046;47.270;11.368;2022-11-15T05:11:35;5.93;;;3.73;;
68989;SDS011;56046;47.270;11.368;2022-11-15T05:14:00;4.47;;;2.38;;
68989;SDS011;56046;47.270;11.368;2022-11-15T05:16:26;5.33;;;2.77;;
68989;SDS011;56046;47.270;11.368;2022-11-15T05:18:54;3.60;;;1.73;;
68989;SDS011;56046;47.270;11.368;2022-11-15T05:21:19;4.03;;;1.80;;
68989;SDS011;56046;47.270;11.368;2022-11-15T05:23:45;5.53;;;2.30;;
68989;SDS011;56046;47.270;11.368;2022-11-15T05:26:11;5.07;;;1.88;;
68989;SDS011;56046;47.270;11.368;2022-11-15T05:28:37;4.72;;;2.65;;
68989;SDS011;56046;47.270;11.368;2022-11-15T05:31:03;4.43;;;2.25;;
68989;SDS011;56046;47.270;11.368;2022-11-15T05:33:31;4.67;;;2.27;;
68989;SDS011;56046;47.270;11.368;2022-11-15T05:36:02;6.20;;;2.97;;
68989;SDS011;56046;47.270;11.368;2022-11-15T05:38:32;6.75;;;3.35;;
68989;SDS011;56046;47.270;11.368;2022-11-15T05:40:59;4.53;;;1.90;;
68989;SDS011;56046;47.270;11.368;2022-11-15T05:43:26;13.25;;;6.05;;
68989;SDS011;56046;47.270;11.368;2022-11-15T05:45:52;10.82;;;5.20;;
68989;SDS011;56046;47.270;11.368;2022-11-15T05:48:18;7.78;;;3.05;;
68989;SDS011;56046;47.270;11.368;2022-11-15T05:50:45;4.00;;;1.92;;
68989;SDS011;56046;47.270;11.368;2022-11-15T05:53:12;3.92;;;1.55;;
68989;SDS011;56046;47.270;11.368;2022-11-15T05:55:39;5.43;;;1.83;;
68989;SDS011;56046;47.270;11.368;2022-11-15T05:58:06;5.10;;;2.20;;
68989;SDS011;56046;47.270;11.368;2022-11-15T06:00:32;6.67;;;2.70;;
68989;SDS011;56046;47.270;11.368;2022-11-15T06:02:58;6.32;;;3.13;;
68989;SDS011;56046;47.270;11.368;2022-11-15T06:05:23;8.00;;;2.77;;
68989;SDS011;56046;47.270;11.368;2022-11-15T06:07:49;6.45;;;2.65;;
68989;SDS011;56046;47.270;11.368;2022-11-15T06:10:14;7.87;;;2.73;;
68989;SDS011;56046;47.270;11.368;2022-11-15T06:12:40;6.23;;;2.57;;
68989;SDS011;56046;47.270;11.368;2022-11-15T06:15:05;4.93;;;2.40;;
68989;SDS011;56046;47.270;11.368;2022-11-15T06:17:31;4.00;;;1.75;;
68989;SDS011;56046;47.270;11.368;2022-11-15T06:19:56;4.90;;;2.20;;
68989;SDS011;56046;47.270;11.368;2022-11-15T06:22:22;4.93;;;1.90;;
68989;SDS011;56046;47.270;11.368;2022-11-15T06:24:47;3.80;;;1.80;;
68989;SDS011;56046;47.270;11.368;2022-11-15T06:27:13;3.80;;;1.63;;
68989;SDS011;56046;47.270;11.368;2022-11-15T06:29:39;4.97;;;2.03;;
68989;SDS011;56046;47.270;11.368;2022-11-15T06:32:04;4.30;;;1.80;;
68989;SDS011;56046;47.270;11.368;2022-11-15T06:34:30;3.63;;;1.70;;
68989;SDS011;56046;47.270;11.368;2022-11-15T06:36:55;3.60;;;1.73;;
68989;SDS011;56046;47.270;11.368;2022-11-15T06:39:21;3.80;;;1.80;;
68989;SDS011;56046;47.270;11.368;2022-11-15T06:41:46;3.60;;;1.67;;
68989;SDS011;56046;47.270;11.368;2022-11-15T06:44:11;4.73;;;1.93;;
68989;SDS011;56046;47.270;11.368;2022-11-15T06:46:37;6.72;;;1.67;;
68989;SDS011;56046;47.270;11.368;2022-11-15T06:49:02;3.87;;;1.60;;
68989;SDS011;56046;47.270;11.368;2022-11-15T06:51:28;4.07;;;1.83;;
68989;SDS011;56046;47.270;11.368;2022-11-15T06:53:53;3.40;;;1.47;;
68989;SDS011;56046;47.270;11.368;2022-11-15T06:56:19;4.95;;;2.08;;
68989;SDS011;56046;47.270;11.368;2022-11-15T06:58:44;5.00;;;2.10;;
68989;SDS011;56046;47.270;11.368;2022-11-15T07:01:10;6.43;;;2.30;;
68989;SDS011;56046;47.270;11.368;2022-11-15T07:03:38;6.32;;;2.88;;
68989;SDS011;56046;47.270;11.368;2022-11-15T07:06:05;7.25;;;2.75;;
68989;SDS011;56046;47.270;11.368;2022-11-15T07:08:31;7.32;;;2.88;;
68989;SDS011;56046;47.270;11.368;2022-11-15T07:10:58;5.53;;;2.10;;
68989;SDS011;56046;47.270;11.368;2022-11-15T07:13:25;4.85;;;2.20;;
68989;SDS011;56046;47.270;11.368;2022-11-15T07:15:52;5.93;;;2.30;;
68989;SDS011;56046;47.270;11.368;2022-11-15T07:18:17;5.93;;;2.67;;
68989;SDS011;56046;47.270;11.368;2022-11-15T07:20:43;7.13;;;2.60;;
68989;SDS011;56046;47.270;11.368;2022-11-15T07:23:08;8.18;;;2.78;;
68989;SDS011;56046;47.270;11.368;2022-11-15T07:25:33;7.43;;;2.80;;
68989;SDS011;56046;47.270;11.368;2022-11-15T07:28:00;6.30;;;2.13;;
68989;SDS011;56046;47.270;11.368;2022-11-15T07:30:26;10.60;;;4.13;;
68989;SDS011;56046;47.270;11.368;2022-11-15T07:32:53;11.30;;;4.70;;
68989;SDS011;56046;47.270;11.368;2022-11-15T07:35:19;6.32;;;2.90;;
68989;SDS011;56046;47.270;11.368;2022-11-15T07:37:52;6.57;;;2.60;;
68989;SDS011;56046;47.270;11.368;2022-11-15T07:40:21;13.18;;;4.18;;
68989;SDS011;56046;47.270;11.368;2022-11-15T07:42:46;35.80;;;15.10;;
68989;SDS011;56046;47.270;11.368;2022-11-15T07:45:18;14.88;;;9.85;;
68989;SDS011;56046;47.270;11.368;2022-11-15T07:47:47;6.72;;;4.15;;
68989;SDS011;56046;47.270;11.368;2022-11-15T07:50:14;6.30;;;3.07;;
68989;SDS011;56046;47.270;11.368;2022-11-15T07:52:39;7.63;;;3.15;;
68989;SDS011;56046;47.270;11.368;2022-11-15T07:55:05;8.60;;;4.23;;
68989;SDS011;56046;47.270;11.368;2022-11-15T07:57:31;5.82;;;3.28;;
68989;SDS011;56046;47.270;11.368;2022-11-15T07:59:56;6.23;;;3.17;;
68989;SDS011;56046;47.270;11.368;2022-11-15T08:02:21;6.97;;;2.93;;
68989;SDS011;56046;47.270;11.368;2022-11-15T08:04:47;7.43;;;3.27;;
68989;SDS011;56046;47.270;11.368;2022-11-15T08:07:12;7.25;;;3.50;;
68989;SDS011;56046;47.270;11.368;2022-11-15T08:09:38;6.93;;;2.90;;
68989;SDS011;56046;47.270;11.368;2022-11-15T08:12:03;7.13;;;3.20;;
68989;SDS011;56046;47.270;11.368;2022-11-15T08:14:29;6.78;;;3.05;;
68989;SDS011;56046;47.270;11.368;2022-11-15T08:16:54;7.07;;;3.00;;
68989;SDS011;56046;47.270;11.368;2022-11-15T08:19:20;7.00;;;2.87;;
68989;SDS011;56046;47.270;11.368;2022-11-15T08:21:45;9.13;;;3.03;;
68989;SDS011;56046;47.270;11.368;2022-11-15T08:24:11;5.80;;;2.50;;
68989;SDS011;56046;47.270;11.368;2022-11-15T08:26:36;7.30;;;2.80;;
68989;SDS011;56046;47.270;11.368;2022-11-15T08:29:02;6.45;;;2.75;;
68989;SDS011;56046;47.270;11.368;2022-11-15T08:31:28;6.55;;;2.50;;
68989;SDS011;56046;47.270;11.368;2022-11-15T08:33:53;6.83;;;2.80;;
68989;SDS011;56046;47.270;11.368;2022-11-15T08:36:19;8.27;;;2.93;;
68989;SDS011;56046;47.270;11.368;2022-11-15T08:38:44;9.00;;;2.60;;
68989;SDS011;56046;47.270;11.368;2022-11-15T08:41:11;7.80;;;2.90;;
68989;SDS011;56046;47.270;11.368;2022-11-15T08:43:41;6.55;;;2.65;;
68989;SDS011;56046;47.270;11.368;2022-11-15T08:46:08;7.23;;;2.87;;
68989;SDS011;56046;47.270;11.368;2022-11-15T08:48:38;5.95;;;2.90;;
68989;SDS011;56046;47.270;11.368;2022-11-15T08:51:03;8.90;;;3.30;;
68989;SDS011;56046;47.270;11.368;2022-11-15T08:53:29;9.25;;;3.00;;
68989;SDS011;56046;47.270;11.368;2022-11-15T08:55:54;8.03;;;3.20;;
68989;SDS011;56046;47.270;11.368;2022-11-15T08:58:20;6.17;;;2.93;;
68989;SDS011;56046;47.270;11.368;2022-11-15T09:00:45;9.23;;;3.15;;
68989;SDS011;56046;47.270;11.368;2022-11-15T09:03:11;8.37;;;3.33;;
68989;SDS011;56046;47.270;11.368;2022-11-15T09:05:36;5.87;;;2.50;;
68989;SDS011;56046;47.270;11.368;2022-11-15T09:08:02;6.38;;;2.55;;
68989;SDS011;56046;47.270;11.368;2022-11-15T09:10:28;4.97;;;2.42;;
68989;SDS011;56046;47.270;11.368;2022-11-15T09:12:56;6.33;;;2.40;;
68989;SDS011;56046;47.270;11.368;2022-11-15T09:15:22;7.53;;;2.88;;
68989;SDS011;56046;47.270;11.368;2022-11-15T09:17:47;5.53;;;2.70;;
68989;SDS011;56046;47.270;11.368;2022-11-15T09:20:13;6.43;;;2.75;;
68989;SDS011;56046;47.270;11.368;2022-11-15T09:22:38;6.33;;;3.00;;
68989;SDS011;56046;47.270;11.368;2022-11-15T09:25:04;5.03;;;2.50;;
68989;SDS011;56046;47.270;11.368;2022-11-15T09:27:30;6.68;;;2.92;;
68989;SDS011;56046;47.270;11.368;2022-11-15T09:29:56;7.22;;;2.80;;
68989;SDS011;56046;47.270;11.368;2022-11-15T09:32:21;7.37;;;2.63;;
68989;SDS011;56046;47.270;11.368;2022-11-15T09:34:48;5.32;;;2.05;;
68989;SDS011;56046;47.270;11.368;2022-11-15T09:37:14;6.40;;;2.80;;
68989;SDS011;56046;47.270;11.368;2022-11-15T09:39:39;6.47;;;2.87;;
68989;SDS011;56046;47.270;11.368;2022-11-15T09:50:47;6.13;;;2.72;;
68989;SDS011;56046;47.270;11.368;2022-11-15T09:53:14;5.50;;;2.30;;
68989;SDS011;56046;47.270;11.368;2022-11-15T09:55:51;4.47;;;2.10;;
68989;SDS011;56046;47.270;11.368;2022-11-15T10:00:56;4.45;;;1.63;;
68989;SDS011;56046;47.270;11.368;2022-11-15T10:03:34;5.80;;;1.98;;
68989;SDS011;56046;47.270;11.368;2022-11-15T10:06:04;6.28;;;2.30;;
68989;SDS011;56046;47.270;11.368;2022-11-15T10:11:14;4.50;;;2.30;;
68989;SDS011;56046;47.270;11.368;2022-11-15T10:13:44;7.88;;;2.38;;
68989;SDS011;56046;47.270;11.368;2022-11-15T10:21:34;4.00;;;1.90;;
68989;SDS011;56046;47.270;11.368;2022-11-15T10:24:24;6.18;;;2.10;;
68989;SDS011;56046;47.270;11.368;2022-11-15T10:26:53;4.45;;;1.92;;
68989;SDS011;56046;47.270;11.368;2022-11-15T10:29:20;6.05;;;2.00;;
68989;SDS011;56046;47.270;11.368;2022-11-15T10:31:47;5.68;;;1.90;;
68989;SDS011;56046;47.270;11.368;2022-11-15T10:34:13;5.27;;;2.00;;
68989;SDS011;56046;47.270;11.368;2022-11-15T10:36:46;3.90;;;2.30;;
68989;SDS011;56046;47.270;11.368;2022-11-15T10:39:18;5.43;;;1.83;;
68989;SDS011;56046;47.270;11.368;2022-11-15T10:41:43;3.60;;;1.70;;
68989;SDS011;56046;47.270;11.368;2022-11-15T10:44:17;3.87;;;1.90;;
68989;SDS011;56046;47.270;11.368;2022-11-15T10:49:28;3.53;;;1.50;;
68989;SDS011;56046;47.270;11.368;2022-11-15T10:51:55;4.07;;;1.80;;
68989;SDS011;56046;47.270;11.368;2022-11-15T10:54:33;3.85;;;2.00;;
68989;SDS011;56046;47.270;11.368;2022-11-15T10:57:22;3.50;;;1.80;;
68989;SDS011;56046;47.270;11.368;2022-11-15T10:59:52;5.45;;;2.17;;
68989;SDS011;56046;47.270;11.368;2022-11-15T11:05:03;4.18;;;2.03;;
68989;SDS011;56046;47.270;11.368;2022-11-15T11:07:32;5.68;;;1.88;;
68989;SDS011;56046;47.270;11.368;2022-11-15T11:10:04;6.73;;;1.90;;
68989;SDS011;56046;47.270;11.368;2022-11-15T11:12:42;4.18;;;1.50;;
68989;SDS011;56046;47.270;11.368;2022-11-15T11:15:12;3.77;;;1.67;;
68989;SDS011;56046;47.270;11.368;2022-11-15T11:20:47;4.65;;;1.63;;
68989;SDS011;56046;47.270;11.368;2022-11-15T11:29:17;3.57;;;1.90;;
68989;SDS011;56046;47.270;11.368;2022-11-15T11:34:29;2.87;;;1.40;;
68989;SDS011;56046;47.270;11.368;2022-11-15T11:45:44;4.60;;;2.10;;
68989;SDS011;56046;47.270;11.368;2022-11-15T11:48:23;3.20;;;1.67;;
68989;SDS011;56046;47.270;11.368;2022-11-15T11:51:17;5.88;;;1.92;;
68989;SDS011;56046;47.270;11.368;2022-11-15T11:56:37;3.83;;;1.70;;
68989;SDS011;56046;47.270;11.368;2022-11-15T11:59:12;2.83;;;1.67;;
68989;SDS011;56046;47.270;11.368;2022-11-15T12:01:46;4.30;;;1.70;;
68989;SDS011;56046;47.270;11.368;2022-11-15T12:06:50;4.30;;;1.80;;
68989;SDS011;56046;47.270;11.368;2022-11-15T12:11:54;4.97;;;1.50;;
68989;SDS011;56046;47.270;11.368;2022-11-15T12:14:32;4.40;;;1.83;;
68989;SDS011;56046;47.270;11.368;2022-11-15T12:17:00;4.05;;;1.60;;
68989;SDS011;56046;47.270;11.368;2022-11-15T12:19:26;3.13;;;1.20;;
68989;SDS011;56046;47.270;11.368;2022-11-15T12:22:00;4.68;;;1.73;;
68989;SDS011;56046;47.270;11.368;2022-11-15T12:24:40;3.40;;;1.52;;
68989;SDS011;56046;47.270;11.368;2022-11-15T12:27:17;2.83;;;1.50;;
68989;SDS011;56046;47.270;11.368;2022-11-15T12:29:51;3.83;;;1.60;;
68989;SDS011;56046;47.270;11.368;2022-11-15T12:34:47;2.90;;;1.67;;
68989;SDS011;56046;47.270;11.368;2022-11-15T12:47:22;5.00;;;1.47;;
68989;SDS011;56046;47.270;11.368;2022-11-15T12:49:49;3.30;;;1.30;;
68989;SDS011;56046;47.270;11.368;2022-11-15T12:52:15;2.75;;;1.27;;
68989;SDS011;56046;47.270;11.368;2022-11-15T13:17:39;4.07;;;1.73;;
68989;SDS011;56046;47.270;11.368;2022-11-15T13:28:02;2.97;;;1.50;;
68989;SDS011;56046;47.270;11.368;2022-11-15T13:30:34;4.53;;;1.53;;
68989;SDS011;56046;47.270;11.368;2022-11-15T13:33:06;2.80;;;1.75;;
68989;SDS011;56046;47.270;11.368;2022-11-15T13:35:36;4.07;;;1.48;;
68989;SDS011;56046;47.270;11.368;2022-11-15T13:38:05;2.35;;;1.50;;
68989;SDS011;56046;47.270;11.368;2022-11-15T13:40:37;4.47;;;2.10;;
68989;SDS011;56046;47.270;11.368;2022-11-15T13:43:44;4.03;;;1.40;;
68989;SDS011;56046;47.270;11.368;2022-11-15T13:48:39;2.33;;;1.20;;
68989;SDS011;56046;47.270;11.368;2022-11-15T13:51:12;3.08;;;1.45;;
68989;SDS011;56046;47.270;11.368;2022-11-15T13:53:42;3.50;;;1.50;;
68989;SDS011;56046;47.270;11.368;2022-11-15T13:56:12;4.70;;;1.40;;
68989;SDS011;56046;47.270;11.368;2022-11-15T13:58:39;4.75;;;1.50;;
68989;SDS011;56046;47.270;11.368;2022-11-15T14:01:05;6.87;;;1.50;;
68989;SDS011;56046;47.270;11.368;2022-11-15T14:03:32;2.28;;;1.50;;
68989;SDS011;56046;47.270;11.368;2022-11-15T14:06:09;2.03;;;1.17;;
68989;SDS011;56046;47.270;11.368;2022-11-15T14:08:38;3.13;;;1.30;;
68989;SDS011;56046;47.270;11.368;2022-11-15T14:11:18;3.25;;;1.30;;
68989;SDS011;56046;47.270;11.368;2022-11-15T14:16:45;4.53;;;1.38;;
68989;SDS011;56046;47.270;11.368;2022-11-15T14:19:22;4.22;;;1.60;;
68989;SDS011;56046;47.270;11.368;2022-11-15T14:22:21;3.13;;;1.50;;
68989;SDS011;56046;47.270;11.368;2022-11-15T14:28:30;3.27;;;1.30;;
68989;SDS011;56046;47.270;11.368;2022-11-15T14:30:32;7.53;;;2.05;;
68989;SDS011;56046;47.270;11.368;2022-11-15T14:32:58;4.90;;;1.90;;
68989;SDS011;56046;47.270;11.368;2022-11-15T14:35:23;3.47;;;1.67;;
68989;SDS011;56046;47.270;11.368;2022-11-15T14:37:49;5.33;;;1.70;;
68989;SDS011;56046;47.270;11.368;2022-11-15T14:40:19;3.70;;;1.47;;
68989;SDS011;56046;47.270;11.368;2022-11-15T14:42:46;4.70;;;1.67;;
68989;SDS011;56046;47.270;11.368;2022-11-15T14:45:17;2.83;;;1.10;;
68989;SDS011;56046;47.270;11.368;2022-11-15T14:47:44;3.60;;;1.02;;
68989;SDS011;56046;47.270;11.368;2022-11-15T14:50:19;2.60;;;1.10;;
68989;SDS011;56046;47.270;11.368;2022-11-15T14:52:46;2.58;;;1.00;;
68989;SDS011;56046;47.270;11.368;2022-11-15T14:55:31;13.57;;;1.83;;
68989;SDS011;56046;47.270;11.368;2022-11-15T14:58:00;3.43;;;1.40;;
68989;SDS011;56046;47.270;11.368;2022-11-15T15:00:28;4.50;;;1.40;;
68989;SDS011;56046;47.270;11.368;2022-11-15T15:02:54;4.10;;;1.58;;
68989;SDS011;56046;47.270;11.368;2022-11-15T15:05:25;2.60;;;1.40;;
68989;SDS011;56046;47.270;11.368;2022-11-15T15:07:54;4.20;;;1.30;;
68989;SDS011;56046;47.270;11.368;2022-11-15T15:10:19;1.97;;;1.30;;
68989;SDS011;56046;47.270;11.368;2022-11-15T15:12:45;6.18;;;1.52;;
68989;SDS011;56046;47.270;11.368;2022-11-15T15:15:15;3.70;;;1.80;;
68989;SDS011;56046;47.270;11.368;2022-11-15T15:17:43;2.80;;;1.10;;
68989;SDS011;56046;47.270;11.368;2022-11-15T15:20:09;2.03;;;1.15;;
68989;SDS011;56046;47.270;11.368;2022-11-15T15:22:35;2.35;;;1.55;;
68989;SDS011;56046;47.270;11.368;2022-11-15T15:25:00;2.70;;;1.00;;
68989;SDS011;56046;47.270;11.368;2022-11-15T15:27:26;4.40;;;1.20;;
68989;SDS011;56046;47.270;11.368;2022-11-15T15:29:51;4.67;;;1.40;;
68989;SDS011;56046;47.270;11.368;2022-11-15T15:32:17;2.90;;;1.48;;
68989;SDS011;56046;47.270;11.368;2022-11-15T15:34:42;2.83;;;1.30;;
68989;SDS011;56046;47.270;11.368;2022-11-15T15:39:47;3.35;;;1.50;;
68989;SDS011;56046;47.270;11.368;2022-11-15T15:42:13;2.55;;;1.30;;
68989;SDS011;56046;47.270;11.368;2022-11-15T15:44:39;3.27;;;1.60;;
68989;SDS011;56046;47.270;11.368;2022-11-15T15:47:09;2.63;;;1.30;;
68989;SDS011;56046;47.270;11.368;2022-11-15T15:49:55;2.90;;;1.50;;
68989;SDS011;56046;47.270;11.368;2022-11-15T15:52:20;2.00;;;1.30;;
68989;SDS011;56046;47.270;11.368;2022-11-15T15:54:46;4.03;;;1.57;;
68989;SDS011;56046;47.270;11.368;2022-11-15T15:57:12;5.43;;;2.05;;
68989;SDS011;56046;47.270;11.368;2022-11-15T15:59:38;4.67;;;2.07;;
68989;SDS011;56046;47.270;11.368;2022-11-15T16:02:04;2.65;;;1.42;;
68989;SDS011;56046;47.270;11.368;2022-11-15T16:04:30;2.55;;;1.45;;
68989;SDS011;56046;47.270;11.368;2022-11-15T16:06:59;6.07;;;2.60;;
68989;SDS011;56046;47.270;11.368;2022-11-15T16:09:25;3.30;;;1.60;;
68989;SDS011;56046;47.270;11.368;2022-11-15T16:12:23;2.27;;;1.30;;
68989;SDS011;56046;47.270;11.368;2022-11-15T16:14:48;2.65;;;1.15;;
68989;SDS011;56046;47.270;11.368;2022-11-15T16:17:15;2.63;;;1.40;;
68989;SDS011;56046;47.270;11.368;2022-11-15T16:19:44;2.30;;;1.38;;
68989;SDS011;56046;47.270;11.368;2022-11-15T16:22:10;2.27;;;1.30;;
68989;SDS011;56046;47.270;11.368;2022-11-15T16:24:35;3.23;;;1.37;;
68989;SDS011;56046;47.270;11.368;2022-11-15T16:27:01;3.70;;;1.80;;
68989;SDS011;56046;47.270;11.368;2022-11-15T16:29:27;2.37;;;1.57;;
68989;SDS011;56046;47.270;11.368;2022-11-15T16:31:53;4.00;;;1.98;;
68989;SDS011;56046;47.270;11.368;2022-11-15T16:34:18;10.40;;;4.57;;
68989;SDS011;56046;47.270;11.368;2022-11-15T16:36:44;4.25;;;1.95;;
68989;SDS011;56046;47.270;11.368;2022-11-15T16:39:12;4.33;;;2.27;;
68989;SDS011;56046;47.270;11.368;2022-11-15T16:41:40;7.65;;;3.75;;
68989;SDS011;56046;47.270;11.368;2022-11-15T16:44:08;3.22;;;1.92;;
68989;SDS011;56046;47.270;11.368;2022-11-15T16:46:33;2.83;;;1.13;;
68989;SDS011;56046;47.270;11.368;2022-11-15T16:48:59;2.50;;;1.20;;
68989;SDS011;56046;47.270;11.368;2022-11-15T16:51:24;2.13;;;1.40;;
68989;SDS011;56046;47.270;11.368;2022-11-15T16:53:50;6.43;;;2.90;;
68989;SDS011;56046;47.270;11.368;2022-11-15T16:56:25;4.90;;;2.33;;
68989;SDS011;56046;47.270;11.368;2022-11-15T16:58:53;2.38;;;1.40;;
68989;SDS011;56046;47.270;11.368;2022-11-15T17:01:30;3.25;;;0.88;;
68989;SDS011;56046;47.270;11.368;2022-11-15T17:03:57;5.22;;;1.70;;
68989;SDS011;56046;47.270;11.368;2022-11-15T17:06:23;2.72;;;1.50;;
68989;SDS011;56046;47.270;11.368;2022-11-15T17:08:50;20.53;;;6.60;;
68989;SDS011;56046;47.270;11.368;2022-11-15T17:11:19;7.45;;;2.47;;
68989;SDS011;56046;47.270;11.368;2022-11-15T17:13:46;3.80;;;1.30;;